This is the latest recevied weather packets stored in our database for station/object KD4WXI. If no packets are shown the sender has not sent any weather packets the latest 10 day(s).
| Time | Temp. | Humidity | Pressure | Rain* | Wind** | Luminosity | Snow |
|---|---|---|---|---|---|---|---|
| 1778095190 | 21.11° C | 85% | 1013.2 hPa | 0 mm | - | 576 W/m² | - |
| 1778094887 | 20.56° C | 85% | 1013.3 hPa | 0 mm | - | 420 W/m² | - |
| 1778094583 | 20.56° C | 86% | 1013.2 hPa | 0 mm | - | 378 W/m² | - |
| 1778094280 | 20.56° C | 85% | 1013.2 hPa | 0 mm | - | 320 W/m² | - |
| 1778093977 | 20.56° C | 86% | 1013.1 hPa | 0 mm | - | 353 W/m² | - |
| 1778093674 | 20.56° C | 87% | 1013.2 hPa | 0 mm | - | 414 W/m² | - |
| 1778093371 | 20° C | 88% | 1013.2 hPa | 0 mm | - | 360 W/m² | - |
| 1778093068 | 20° C | 89% | 1013.4 hPa | 0 mm | - | 321 W/m² | - |
| 1778092765 | 20° C | 90% | 1013 hPa | 0 mm | - | 275 W/m² | - |
| 1778092460 | 19.44° C | 92% | 1013.3 hPa | 0 mm | - | 249 W/m² | - |
| 1778092158 | 19.44° C | 90% | 1013.4 hPa | 0 mm | - | 229 W/m² | - |
| 1778091855 | 20° C | 91% | 1013.4 hPa | 0 mm | - | 178 W/m² | - |
| 1778091552 | 19.44° C | 91% | 1013.4 hPa | 0 mm | - | 206 W/m² | - |
| 1778091250 | 20° C | 90% | 1013.1 hPa | 0 mm | - | 276 W/m² | - |
| 1778090947 | 20° C | 91% | 1013.1 hPa | 0 mm | - | 475 W/m² | - |
| 1778090643 | 20° C | 91% | 1013 hPa | 0 mm | - | 403 W/m² | - |
| 1778090340 | 19.44° C | 93% | 1013.5 hPa | 0 mm | - | 298 W/m² | - |
| 1778090036 | 18.89° C | 94% | 1013.6 hPa | 0 mm | - | 444 W/m² | - |
| 1778089733 | 18.89° C | 96% | 1013.7 hPa | 0 mm | - | 344 W/m² | - |
| 1778089431 | 18.33° C | 96% | 1014.3 hPa | 0 mm | - | 238 W/m² | - |
| 1778089128 | 17.78° C | 97% | 1015.1 hPa | 0 mm | - | 189 W/m² | - |
| 1778088825 | 17.78° C | 97% | 1015.4 hPa | 0 mm | - | 155 W/m² | - |
| 1778088522 | 17.78° C | 97% | 1015 hPa | 0 mm | - | 119 W/m² | - |
| 1778088218 | 17.78° C | 96% | 1015 hPa | 1.27 mm | - | 112 W/m² | - |
| 1778087916 | 17.78° C | 95% | 1015 hPa | 3.05 mm | - | 131 W/m² | - |
* Rain latest hour (hover to see other rain measurements)
** Current wind speed in m/s (hover to see current wind gust speed)